KFST/FST METAR and TAF weather

Enter ICAO airport designator
Station Type Date Time Source
KFST METAR 2019/08/23 17:53 UTC NOAA

KFST 231753Z AUTO 00000KT 10SM CLR 30/18 A2998 RMK AO2 SLP105 6//// T03000183 58004


Station Type Date Time Source
KFST Decoded METAR 2019/08/23 17:53 UTC NOAA

Station name not available
Aug 23, 2019 - 01:53 PM EDT / 2019.08.23 1753 UTC
Wind: Calm:0
Visibility: 10 mile(s):0
Sky conditions: clear
Temperature: 86.0 F (30.0 C)
Dew Point: 64.9 F (18.3 C)
Relative Humidity: 49%
Pressure (altimeter): 29.98 in. Hg (1015 hPa)
Pressure tendency: 0.01 inches (0.4 hPa) lower than three hours ago
ob: KFST 231753Z AUTO 00000KT 10SM CLR 30/18 A2998 RMK AO2 SLP105 6//// T03000183 58004
cycle: 18

Station Type Date Time Source
KFST TAF 2019/08/23 18:39 UTC NOAA

TAF KFST 231736Z 2318/2418 15008KT P6SM FEW070 SCT300
FM240200 14012KT P6SM SCT300
FM241000 16008KT P6SM SCT300

Example: see airport list